createdAt,value
2016-10-22T00:00:21.412Z,75.67
2016-10-22T00:01:34.924Z,75.86
2016-10-22T00:02:47.858Z,75.96
2016-10-22T00:04:00.957Z,76.34
2016-10-22T00:05:13.894Z,76.25
2016-10-22T00:06:26.954Z,76.25
2016-10-22T00:07:40.380Z,76.15
2016-10-22T00:08:53.987Z,76.15
2016-10-22T00:10:07.463Z,76.25
2016-10-22T00:11:19.876Z,76.06
2016-10-22T00:12:32.848Z,76.25
2016-10-22T00:13:46.307Z,76.73
2016-10-22T00:14:59.327Z,76.53
2016-10-22T00:16:12.916Z,76.44
2016-10-22T00:17:24.762Z,76.34
2016-10-22T00:18:38.203Z,76.21
2016-10-22T00:19:51.222Z,76.88
2016-10-22T00:21:04.705Z,76.73
2016-10-22T00:22:18.221Z,76.69
2016-10-22T00:23:31.769Z,76.78
2016-10-22T00:24:45.213Z,77.36
2016-10-22T00:25:57.607Z,77.26
2016-10-22T00:27:11.070Z,77.26
2016-10-22T00:28:23.478Z,77.08
2016-10-22T00:29:35.909Z,76.88
2016-10-22T00:30:48.912Z,77.08
2016-10-22T00:32:01.896Z,77.26
2016-10-22T00:33:15.325Z,77.26
2016-10-22T00:34:28.321Z,76.98
2016-10-22T00:35:41.327Z,77.01
2016-10-22T00:36:54.878Z,77.11
2016-10-22T00:38:07.858Z,77.26
2016-10-22T00:39:21.385Z,76.92
2016-10-22T00:40:34.911Z,76.92
2016-10-22T00:41:46.872Z,76.59
2016-10-22T00:42:59.755Z,76.63
2016-10-22T00:44:12.784Z,76.53
2016-10-22T00:45:25.736Z,77.26
2016-10-22T00:46:39.212Z,76.98
2016-10-22T00:47:52.794Z,77.11
2016-10-22T00:49:05.768Z,77.11
2016-10-22T00:50:19.293Z,77.11
2016-10-22T00:51:32.275Z,77.17
2016-10-22T00:52:45.884Z,77.21
2016-10-22T00:53:58.831Z,76.82
2016-10-22T00:55:11.825Z,77.31
2016-10-22T00:56:25.301Z,77.31
2016-10-22T00:57:38.284Z,77.98
2016-10-22T00:58:51.827Z,77.59
2016-10-22T01:00:04.743Z,77.56
2016-10-22T01:01:17.711Z,77.65
2016-10-22T01:02:31.188Z,77.88
2016-10-22T01:03:44.782Z,77.84
2016-10-22T01:04:57.714Z,77.56
2016-10-22T01:06:10.923Z,77.56
2016-10-22T01:07:23.972Z,77.31
2016-10-22T01:08:37.510Z,77.31
2016-10-22T01:09:50.559Z,77.56
2016-10-22T01:11:03.002Z,77.59
2016-10-22T01:12:15.964Z,77.78
2016-10-22T01:13:29.482Z,77.88
2016-10-22T01:14:42.627Z,77.84
2016-10-22T01:15:56.101Z,77.88
2016-10-22T01:17:09.102Z,77.78
2016-10-22T01:18:21.981Z,78.03
2016-10-22T01:19:34.366Z,78.08
2016-10-22T01:20:47.402Z,77.56
2016-10-22T01:22:00.794Z,77.78
2016-10-22T01:23:13.763Z,77.88
2016-10-22T01:24:26.257Z,78.17
2016-10-22T01:25:38.878Z,77.94
2016-10-22T01:26:52.362Z,77.98
2016-10-22T01:28:04.809Z,78.08
2016-10-22T01:29:18.326Z,77.88
2016-10-22T01:30:31.927Z,77.98
2016-10-22T01:31:45.005Z,78.03
2016-10-22T01:32:57.429Z,78.08
2016-10-22T01:34:10.947Z,77.98
2016-10-22T01:35:23.937Z,78.03
2016-10-22T01:36:35.485Z,77.98
2016-10-22T01:37:48.975Z,77.94
2016-10-22T01:39:02.460Z,77.98
2016-10-22T01:40:15.484Z,77.84
2016-10-22T01:41:28.487Z,77.88
2016-10-22T01:42:41.217Z,77.75
2016-10-22T01:43:54.767Z,77.75
2016-10-22T01:45:08.272Z,77.84
2016-10-22T01:46:21.288Z,77.84
2016-10-22T01:47:34.399Z,77.69
2016-10-22T01:48:46.813Z,77.88
2016-10-22T01:49:59.867Z,77.98
2016-10-22T01:51:12.829Z,77.94
2016-10-22T01:52:25.781Z,77.65
2016-10-22T01:53:38.212Z,77.69
2016-10-22T01:54:51.698Z,77.75
2016-10-22T01:56:05.186Z,77.78
2016-10-22T01:57:17.571Z,77.59
2016-10-22T01:58:30.581Z,77.98
2016-10-22T01:59:44.133Z,77.59
2016-10-22T02:00:56.591Z,77.69
2016-10-22T02:02:10.113Z,77.59
2016-10-22T02:03:23.513Z,77.69
2016-10-22T02:04:36.935Z,77.78
2016-10-22T02:05:49.850Z,77.36
2016-10-22T02:07:02.827Z,78.08
2016-10-22T02:08:15.247Z,77.75
2016-10-22T02:09:27.791Z,77.65
2016-10-22T02:10:40.748Z,77.84
2016-10-22T02:11:53.167Z,78.03
2016-10-22T02:13:06.635Z,78.13
2016-10-22T02:14:20.111Z,78.52
2016-10-22T02:15:33.144Z,78.61
2016-10-22T02:16:46.563Z,78.23
2016-10-22T02:18:00.060Z,78.23
2016-10-22T02:19:13.518Z,77.94
2016-10-22T02:20:26.110Z,78.36
2016-10-22T02:21:39.095Z,78.13
2016-10-22T02:22:51.531Z,78.13
2016-10-22T02:24:04.491Z,78.42
2016-10-22T02:25:17.983Z,78.61
2016-10-22T02:26:31.030Z,78.9
2016-10-22T02:27:44.494Z,78.46
2016-10-22T02:28:57.960Z,78.46
2016-10-22T02:30:10.981Z,78.03
2016-10-22T02:31:22.944Z,78.36
2016-10-22T02:32:35.851Z,78.23
2016-10-22T02:33:49.346Z,78.27
2016-10-22T02:35:02.294Z,78.27
2016-10-22T02:36:14.748Z,78.36
2016-10-22T02:37:27.235Z,78.23
2016-10-22T02:38:40.767Z,78.46
2016-10-22T02:39:53.731Z,78.13
2016-10-22T02:41:05.625Z,78.23
2016-10-22T02:42:18.726Z,78.52
2016-10-22T02:43:32.232Z,78.61
2016-10-22T02:44:45.198Z,78.13
2016-10-22T02:45:57.649Z,78.33
2016-10-22T02:47:11.104Z,77.94
2016-10-22T02:48:24.774Z,78.52
2016-10-22T02:49:37.761Z,78.81
2016-10-22T02:50:51.218Z,79.19
2016-10-22T02:52:04.210Z,79.1
2016-10-22T02:53:17.841Z,79
2016-10-22T02:54:30.844Z,78.81
2016-10-22T02:55:44.353Z,78.9
2016-10-22T02:56:56.772Z,79
2016-10-22T02:58:09.214Z,79.67
2016-10-22T02:59:22.201Z,79.67
2016-10-22T03:00:35.193Z,79.67
2016-10-22T03:01:47.633Z,80.06
2016-10-22T03:03:01.158Z,80.06
2016-10-22T03:04:14.752Z,80.35
2016-10-22T03:05:26.661Z,80.54
2016-10-22T03:06:40.162Z,80.35
2016-10-22T03:07:53.151Z,80.92
2016-10-22T03:09:06.636Z,81.02
2016-10-22T03:10:19.089Z,80.63
2016-10-22T03:11:32.082Z,81.3
2016-10-22T03:12:45.135Z,81.7
2016-10-22T03:13:58.550Z,81.5
2016-10-22T03:15:11.654Z,81.4
2016-10-22T03:16:24.055Z,81.21
2016-10-22T03:17:37.507Z,81.79
2016-10-22T03:18:51.224Z,81.98
2016-10-22T03:20:04.145Z,81.6
2016-10-22T03:21:17.664Z,81.88
2016-10-22T03:22:30.038Z,81.98
2016-10-22T03:23:43.207Z,82.17
2016-10-22T03:24:56.588Z,82.14
2016-10-22T03:26:10.155Z,82.37
2016-10-22T03:27:23.617Z,82.56
2016-10-22T03:28:36.026Z,82.37
2016-10-22T03:29:48.397Z,82.27
2016-10-22T03:31:00.817Z,82.08
2016-10-22T03:32:14.365Z,82.75
2016-10-22T03:33:27.802Z,82.75
2016-10-22T03:34:41.417Z,82.37
2016-10-22T03:35:54.851Z,82.52
2016-10-22T03:37:08.359Z,82.56
2016-10-22T03:38:21.273Z,82.9
2016-10-22T03:39:34.733Z,83.19
2016-10-22T03:40:47.042Z,83.04
2016-10-22T03:41:59.927Z,83.23
2016-10-22T03:43:12.969Z,83.33
2016-10-22T03:44:26.390Z,83.29
2016-10-22T03:45:40.026Z,83.23
2016-10-22T03:46:53.410Z,83.19
2016-10-22T03:48:06.446Z,83.29
2016-10-22T03:49:19.367Z,83.39
2016-10-22T03:50:32.226Z,83.58
2016-10-22T03:51:44.733Z,83.09
2016-10-22T03:52:57.659Z,83.29
2016-10-22T03:54:09.504Z,83.19
2016-10-22T03:55:21.367Z,83.29
2016-10-22T03:56:33.752Z,83.29
2016-10-22T03:57:46.659Z,83.29
2016-10-22T03:59:00.171Z,82.81
2016-10-22T04:00:12.824Z,82.81
2016-10-22T04:01:26.302Z,82.81
2016-10-22T04:02:39.199Z,83.09
2016-10-22T04:03:51.068Z,82.9
2016-10-22T04:05:03.991Z,82.81
2016-10-22T04:06:16.830Z,82.71
2016-10-22T04:07:29.206Z,82.71
2016-10-22T04:08:42.818Z,83
2016-10-22T04:09:56.355Z,82.42
2016-10-22T04:11:09.909Z,82.52
2016-10-22T04:12:22.236Z,82.14
2016-10-22T04:13:35.662Z,82.32
2016-10-22T04:14:49.019Z,82.23
2016-10-22T04:16:02.595Z,82.32
2016-10-22T04:17:15.575Z,82.42
2016-10-22T04:18:28.655Z,82.23
2016-10-22T04:19:41.593Z,82.32
2016-10-22T04:20:54.156Z,82.48
2016-10-22T04:22:07.100Z,82.61
2016-10-22T04:23:20.208Z,82.32
2016-10-22T04:24:33.135Z,82.14
2016-10-22T04:25:45.483Z,81.9
2016-10-22T04:26:59.125Z,82.04
2016-10-22T04:28:12.568Z,82.52
2016-10-22T04:29:25.657Z,82.23
2016-10-22T04:30:39.025Z,82.14
2016-10-22T04:31:52.802Z,82.04
2016-10-22T04:33:05.692Z,82.42
2016-10-22T04:34:18.614Z,82.52
2016-10-22T04:35:31.559Z,82.23
2016-10-22T04:36:43.949Z,82.29
2016-10-22T04:37:57.421Z,82.32
2016-10-22T04:39:10.369Z,82.04
2016-10-22T04:40:22.880Z,82.42
2016-10-22T04:41:35.350Z,82.32
2016-10-22T04:42:48.936Z,82.32
2016-10-22T04:44:01.400Z,82.32
2016-10-22T04:45:14.838Z,82.14
2016-10-22T04:46:26.759Z,82.32
2016-10-22T04:47:39.127Z,82.29
2016-10-22T04:48:51.545Z,81.99
2016-10-22T04:50:04.932Z,82.09
2016-10-22T04:51:17.882Z,82.09
2016-10-22T04:52:30.790Z,81.84
2016-10-22T04:53:43.960Z,81.9
2016-10-22T04:54:56.995Z,81.99
2016-10-22T04:56:10.611Z,82.09
2016-10-22T04:57:24.065Z,81.9
2016-10-22T04:58:36.984Z,81.81
2016-10-22T04:59:49.331Z,82.29
2016-10-22T05:01:02.237Z,81.9
2016-10-22T05:02:14.046Z,81.52
2016-10-22T05:03:26.943Z,81.61
2016-10-22T05:04:39.969Z,81.81
2016-10-22T05:05:53.437Z,81.61
2016-10-22T05:07:06.394Z,81.71
2016-10-22T05:08:19.849Z,81.61
2016-10-22T05:09:32.747Z,81.81
2016-10-22T05:10:45.802Z,81.71
2016-10-22T05:11:58.726Z,81.52
2016-10-22T05:13:12.322Z,81.61
2016-10-22T05:14:24.471Z,81.81
2016-10-22T05:15:37.546Z,81.52
2016-10-22T05:16:50.501Z,81.71
2016-10-22T05:18:03.441Z,81.99
2016-10-22T05:19:15.912Z,81.71
2016-10-22T05:20:29.375Z,82.29
2016-10-22T05:21:43.066Z,82.09
2016-10-22T05:22:56.002Z,82.09
2016-10-22T05:24:09.008Z,82.09
2016-10-22T05:25:22.498Z,81.9
2016-10-22T05:26:36.192Z,81.81
2016-10-22T05:27:48.631Z,82.09
2016-10-22T05:29:01.561Z,81.9
2016-10-22T05:30:14.473Z,81.9
2016-10-22T05:31:27.466Z,82.09
2016-10-22T05:32:41.028Z,82.38
2016-10-22T05:33:53.863Z,82.29
2016-10-22T05:35:06.739Z,82.38
2016-10-22T05:36:20.294Z,82.19
2016-10-22T05:37:33.252Z,82.48
2016-10-22T05:38:45.602Z,82.29
2016-10-22T05:39:58.481Z,82.09
2016-10-22T05:41:10.819Z,81.99
2016-10-22T05:42:24.289Z,82.09
2016-10-22T05:43:37.162Z,82.29
2016-10-22T05:44:50.625Z,82.09
2016-10-22T05:46:04.060Z,81.99
2016-10-22T05:47:17.518Z,81.99
2016-10-22T05:48:30.634Z,82.29
2016-10-22T05:49:44.096Z,81.9
2016-10-22T05:50:57.487Z,81.99
2016-10-22T05:52:10.388Z,81.99
2016-10-22T05:53:22.761Z,82.29
2016-10-22T05:54:36.343Z,82.29
2016-10-22T05:55:49.788Z,81.9
2016-10-22T05:57:02.260Z,81.99
2016-10-22T05:58:15.726Z,81.9
2016-10-22T05:59:28.845Z,81.9
2016-10-22T06:00:40.176Z,81.81
2016-10-22T06:01:53.371Z,81.61
2016-10-22T06:03:06.214Z,81.52
2016-10-22T06:04:19.878Z,81.42
2016-10-22T06:05:33.317Z,81.32
2016-10-22T06:06:46.939Z,81.71
2016-10-22T06:07:59.311Z,81.71
2016-10-22T06:09:12.708Z,81.23
2016-10-22T06:10:24.690Z,81.13
2016-10-22T06:11:36.601Z,81.13
2016-10-22T06:12:50.078Z,81.04
2016-10-22T06:14:02.593Z,81.23
2016-10-22T06:15:16.027Z,81.13
2016-10-22T06:16:29.022Z,81.32
2016-10-22T06:17:41.952Z,81.23
2016-10-22T06:18:55.347Z,81.23
2016-10-22T06:20:08.207Z,81.23
2016-10-22T06:21:21.787Z,81.23
2016-10-22T06:22:33.623Z,81.32
2016-10-22T06:23:46.521Z,81.23
2016-10-22T06:24:59.401Z,81.13
2016-10-22T06:26:12.715Z,81.23
2016-10-22T06:27:25.720Z,81.42
2016-10-22T06:28:39.165Z,80.84
2016-10-22T06:29:52.054Z,81.23
2016-10-22T06:31:04.953Z,80.94
2016-10-22T06:32:18.460Z,81.23
2016-10-22T06:33:31.976Z,80.94
2016-10-22T06:34:44.882Z,81.32
2016-10-22T06:35:58.356Z,81.71
2016-10-22T06:37:11.790Z,81.52
2016-10-22T06:38:24.699Z,81.71
2016-10-22T06:39:38.125Z,81.61
2016-10-22T06:40:51.013Z,81.71
2016-10-22T06:42:03.449Z,81.71
2016-10-22T06:43:16.417Z,81.61
2016-10-22T06:44:29.320Z,81.42
2016-10-22T06:45:42.717Z,81.52
2016-10-22T06:46:55.643Z,81.61
2016-10-22T06:48:08.502Z,81.42
2016-10-22T06:49:21.917Z,81.32
2016-10-22T06:50:34.347Z,81.32
2016-10-22T06:51:47.802Z,81.42
2016-10-22T06:53:01.396Z,81.42
2016-10-22T06:54:14.240Z,81.52
2016-10-22T06:55:27.751Z,81.52
2016-10-22T06:56:41.125Z,81.32
2016-10-22T06:57:54.615Z,81.61
2016-10-22T06:59:06.439Z,81.42
2016-10-22T07:00:19.848Z,81.32
2016-10-22T07:01:32.212Z,81.32
2016-10-22T07:02:44.627Z,81.32
2016-10-22T07:03:56.991Z,81.52
2016-10-22T07:05:09.940Z,81.52
2016-10-22T07:06:22.796Z,81.71
2016-10-22T07:07:35.830Z,81.42
2016-10-22T07:08:49.302Z,81.76
2016-10-22T07:10:01.206Z,81.71
2016-10-22T07:11:13.589Z,81.71
2016-10-22T07:12:26.520Z,81.71
2016-10-22T07:13:40.016Z,81.42
2016-10-22T07:14:53.382Z,81.61
2016-10-22T07:16:06.392Z,81.61
2016-10-22T07:17:19.291Z,81.57
2016-10-22T07:18:32.107Z,81.42
2016-10-22T07:19:45.514Z,81.61
2016-10-22T07:20:58.919Z,81.61
2016-10-22T07:22:12.493Z,81.52
2016-10-22T07:23:25.399Z,81.38
2016-10-22T07:24:38.868Z,81.28
2016-10-22T07:25:51.777Z,81.52
2016-10-22T07:27:04.883Z,81.61
2016-10-22T07:28:18.307Z,81.52
2016-10-22T07:29:30.696Z,81.67
2016-10-22T07:30:42.690Z,81.48
2016-10-22T07:31:55.687Z,81.71
2016-10-22T07:33:08.182Z,81.42
2016-10-22T07:34:21.085Z,81.81
2016-10-22T07:35:33.958Z,82.09
2016-10-22T07:36:45.778Z,82.09
2016-10-22T07:37:58.741Z,82.19
2016-10-22T07:39:11.670Z,81.71
2016-10-22T07:40:24.555Z,82.76
2016-10-22T07:41:36.421Z,82.38
2016-10-22T07:42:49.795Z,82.43
2016-10-22T07:44:03.245Z,82.34
2016-10-22T07:45:16.705Z,82.67
2016-10-22T07:46:29.616Z,83.01
2016-10-22T07:47:41.521Z,83.25
2016-10-22T07:48:54.591Z,83.49
2016-10-22T07:50:07.480Z,84.07
2016-10-22T07:51:20.483Z,84.26
2016-10-22T07:52:33.883Z,84.17
2016-10-22T07:53:46.848Z,84.17
2016-10-22T07:55:00.442Z,84.17
2016-10-22T07:56:13.944Z,84.17
2016-10-22T07:57:26.868Z,84.36
2016-10-22T07:58:39.818Z,84.36
2016-10-22T07:59:52.926Z,84.84
2016-10-22T08:01:05.437Z,84.17
2016-10-22T08:02:19.049Z,84.07
2016-10-22T08:03:32.007Z,84.17
2016-10-22T08:04:45.859Z,84.36
2016-10-22T08:05:58.943Z,83.97
2016-10-22T08:07:11.906Z,83.87
2016-10-22T08:08:25.431Z,84.17
2016-10-22T08:09:38.468Z,83.97
2016-10-22T08:10:51.569Z,84.07
2016-10-22T08:12:05.099Z,83.49
2016-10-22T08:13:17.550Z,83.78
2016-10-22T08:14:31.065Z,83.2
2016-10-22T08:15:44.263Z,83.3
2016-10-22T08:16:57.297Z,83.3
2016-10-22T08:18:10.773Z,83.49
2016-10-22T08:19:23.199Z,83.4
2016-10-22T08:20:36.714Z,82.92
2016-10-22T08:21:49.779Z,83.11
2016-10-22T08:23:02.700Z,83.3
2016-10-22T08:24:15.171Z,83.78
2016-10-22T08:25:27.659Z,83.59
2016-10-22T08:26:40.595Z,83.49
2016-10-22T08:27:53.489Z,83.97
2016-10-22T08:29:05.943Z,83.97
2016-10-22T08:30:19.421Z,83.87
2016-10-22T08:31:32.347Z,84.07
2016-10-22T08:32:45.941Z,83.59
2016-10-22T08:33:59.497Z,84.07
2016-10-22T08:35:12.988Z,83.78
2016-10-22T08:36:26.590Z,83.78
2016-10-22T08:37:39.667Z,84.17
2016-10-22T08:38:53.084Z,84.07
2016-10-22T08:40:06.585Z,84.26
2016-10-22T08:41:19.586Z,84.36
2016-10-22T08:42:32.584Z,83.78
2016-10-22T08:43:45.708Z,84.07
2016-10-22T08:44:59.243Z,84.17
2016-10-22T08:46:11.697Z,84.26
2016-10-22T08:47:24.733Z,83.97
2016-10-22T08:48:37.209Z,83.78
2016-10-22T08:49:49.730Z,83.87
2016-10-22T08:51:02.671Z,84.17
2016-10-22T08:52:14.590Z,83.97
2016-10-22T08:53:28.038Z,83.3
2016-10-22T08:54:41.615Z,83.11
2016-10-22T08:55:54.074Z,83.11
2016-10-22T08:57:07.000Z,83.3
2016-10-22T08:58:20.034Z,83.15
2016-10-22T08:59:33.604Z,83.25
2016-10-22T09:00:47.167Z,83.2
2016-10-22T09:02:00.211Z,83.01
2016-10-22T09:03:13.157Z,83.2
2016-10-22T09:04:26.065Z,83.01
2016-10-22T09:05:38.657Z,83.2
2016-10-22T09:06:51.635Z,83.44
2016-10-22T09:08:05.083Z,83.25
2016-10-22T09:09:18.574Z,83.34
2016-10-22T09:10:32.223Z,83.11
2016-10-22T09:11:45.218Z,83.15
2016-10-22T09:12:58.123Z,83.25
2016-10-22T09:14:10.523Z,82.76
2016-10-22T09:15:24.143Z,82.86
2016-10-22T09:16:36.760Z,82.76
2016-10-22T09:17:50.230Z,82.86
2016-10-22T09:19:03.648Z,82.38
2016-10-22T09:20:16.071Z,82.48
2016-10-22T09:21:28.970Z,82.48
2016-10-22T09:22:41.425Z,82.29
2016-10-22T09:23:53.866Z,82.48
2016-10-22T09:25:06.812Z,82.67
2016-10-22T09:26:18.811Z,82.38
2016-10-22T09:27:31.044Z,82.48
2016-10-22T09:28:42.953Z,81.99
2016-10-22T09:29:56.569Z,82.38
2016-10-22T09:31:09.060Z,82.29
2016-10-22T09:32:22.579Z,82.19
2016-10-22T09:33:35.585Z,82.29
2016-10-22T09:34:48.572Z,81.94
2016-10-22T09:36:02.034Z,82.04
2016-10-22T09:37:15.061Z,82.32
2016-10-22T09:38:28.741Z,82.14
2016-10-22T09:39:41.219Z,81.94
2016-10-22T09:40:54.758Z,82.14
2016-10-22T09:42:08.411Z,82.04
2016-10-22T09:43:20.829Z,81.65
2016-10-22T09:44:34.524Z,81.75
2016-10-22T09:45:47.977Z,81.6
2016-10-22T09:46:59.897Z,81.07
2016-10-22T09:48:13.481Z,80.83
2016-10-22T09:49:26.154Z,81.02
2016-10-22T09:50:39.694Z,80.44
2016-10-22T09:51:52.155Z,80.06
2016-10-22T09:53:05.136Z,79.33
2016-10-22T09:54:18.088Z,79.03
2016-10-22T09:55:30.987Z,79.03
2016-10-22T09:56:43.460Z,79.23
2016-10-22T09:57:56.404Z,78.36
2016-10-22T09:59:09.334Z,78.65
2016-10-22T10:00:22.330Z,78.17
2016-10-22T10:01:35.197Z,77.98
2016-10-22T10:02:47.050Z,77.78
2016-10-22T10:03:59.535Z,78.17
2016-10-22T10:05:12.475Z,77.4
2016-10-22T10:06:24.941Z,77.21
2016-10-22T10:07:38.449Z,76.67
2016-10-22T10:08:51.393Z,76.57
2016-10-22T10:10:04.325Z,76.82
2016-10-22T10:11:17.980Z,76.67
2016-10-22T10:12:30.980Z,76.28
2016-10-22T10:13:43.398Z,76.18
2016-10-22T10:14:56.326Z,76.09
2016-10-22T10:16:09.814Z,76.09
2016-10-22T10:17:23.458Z,75.71
2016-10-22T10:18:36.912Z,75.99
2016-10-22T10:19:49.867Z,76.09
2016-10-22T10:21:01.704Z,75.9
2016-10-22T10:22:15.323Z,75.9
2016-10-22T10:23:28.292Z,75.99
2016-10-22T10:24:41.794Z,76.09
2016-10-22T10:25:55.328Z,75.9
2016-10-22T10:27:07.192Z,76.18
2016-10-22T10:28:19.219Z,75.8
2016-10-22T10:29:32.725Z,76.15
2016-10-22T10:30:45.762Z,75.9
2016-10-22T10:31:59.266Z,75.32
2016-10-22T10:33:12.320Z,75.71
2016-10-22T10:34:24.768Z,75.42
2016-10-22T10:35:38.248Z,75.32
2016-10-22T10:36:51.787Z,74.74
2016-10-22T10:38:04.239Z,74.65
2016-10-22T10:39:17.265Z,74.45
2016-10-22T10:40:30.231Z,74.2
2016-10-22T10:41:42.664Z,74.49
2016-10-22T10:42:55.137Z,73.72
2016-10-22T10:44:08.172Z,73.91
2016-10-22T10:45:21.110Z,73.72
2016-10-22T10:46:34.013Z,73.91
2016-10-22T10:47:46.464Z,73.05
2016-10-22T10:48:59.460Z,72.85
2016-10-22T10:50:12.918Z,72.75
2016-10-22T10:51:26.405Z,72.75
2016-10-22T10:52:39.391Z,72.85
2016-10-22T10:53:52.285Z,72.66
2016-10-22T10:55:05.793Z,72.66
2016-10-22T10:56:18.729Z,72.75
2016-10-22T10:57:32.236Z,72.75
2016-10-22T10:58:45.722Z,73.24
2016-10-22T10:59:59.217Z,73.24
2016-10-22T11:01:12.663Z,72.95
2016-10-22T11:02:25.066Z,73.24
2016-10-22T11:03:38.615Z,73.33
2016-10-22T11:04:52.127Z,73.05
2016-10-22T11:06:04.642Z,73.24
2016-10-22T11:07:18.118Z,73.24
2016-10-22T11:08:31.103Z,72.56
2016-10-22T11:09:44.031Z,72.56
2016-10-22T11:10:57.522Z,72.89
2016-10-22T11:12:10.566Z,72.21
2016-10-22T11:13:22.408Z,72.5
2016-10-22T11:14:34.785Z,71.54
2016-10-22T11:15:47.766Z,71.64
2016-10-22T11:17:00.297Z,72.02
2016-10-22T11:18:13.797Z,71.48
2016-10-22T11:19:26.222Z,71.09
2016-10-22T11:20:39.729Z,70.9
2016-10-22T11:21:53.230Z,70.32
2016-10-22T11:23:06.366Z,69.93
2016-10-22T11:24:19.384Z,70.13
2016-10-22T11:25:32.418Z,69.84
2016-10-22T11:26:45.911Z,69.45
2016-10-22T11:27:59.581Z,69.35
2016-10-22T11:29:12.697Z,68.91
2016-10-22T11:30:26.208Z,68.91
2016-10-22T11:31:39.167Z,68.23
2016-10-22T11:32:51.167Z,67.75
2016-10-22T11:34:04.559Z,67.94
2016-10-22T11:35:18.099Z,67.97
2016-10-22T11:36:30.570Z,67.75
2016-10-22T11:37:43.624Z,67.49
2016-10-22T11:38:56.153Z,67.49
2016-10-22T11:40:09.138Z,67.11
2016-10-22T11:41:22.658Z,67.4
2016-10-22T11:42:36.114Z,67.3
2016-10-22T11:43:49.673Z,67.49
2016-10-22T11:45:02.682Z,67.01
2016-10-22T11:46:14.588Z,67.01
2016-10-22T11:47:27.596Z,67.11
2016-10-22T11:48:40.004Z,66.91
2016-10-22T11:49:53.295Z,66.53
2016-10-22T11:51:05.801Z,66.14
2016-10-22T11:52:18.705Z,65.98
2016-10-22T11:53:31.613Z,65.69
2016-10-22T11:54:45.124Z,65.4
2016-10-22T11:55:58.748Z,65.78
2016-10-22T11:57:10.708Z,65.3
2016-10-22T11:58:23.163Z,65.01
2016-10-22T11:59:36.087Z,64.92
2016-10-22T12:00:49.146Z,64.34
2016-10-22T12:02:02.589Z,64.95
2016-10-22T12:03:15.053Z,64.66
2016-10-22T12:04:28.559Z,64.08
2016-10-22T12:05:41.618Z,63.6
2016-10-22T12:06:54.725Z,63.82
2016-10-22T12:08:06.698Z,63.24
2016-10-22T12:09:20.212Z,62.3
2016-10-22T12:10:33.657Z,62.11
2016-10-22T12:11:46.757Z,60.88
2016-10-22T12:12:59.200Z,60.11
2016-10-22T12:14:12.921Z,60.14
2016-10-22T12:15:25.416Z,59.84
2016-10-22T12:16:38.371Z,59.1
2016-10-22T12:17:51.307Z,58.81
2016-10-22T12:19:04.290Z,58.72
2016-10-22T12:20:17.795Z,58.62
2016-10-22T12:21:30.826Z,58.23
2016-10-22T12:22:43.872Z,58.36
2016-10-22T12:23:57.308Z,58.16
2016-10-22T12:25:10.861Z,57.19
2016-10-22T12:26:24.349Z,57.48
2016-10-22T12:27:37.454Z,57.58
2016-10-22T12:28:50.461Z,57
2016-10-22T12:30:03.404Z,56.64
2016-10-22T12:31:16.371Z,56.45
2016-10-22T12:32:29.931Z,55.6
2016-10-22T12:33:43.026Z,55.21
2016-10-22T12:34:55.960Z,54.27
2016-10-22T12:36:09.525Z,54.2
2016-10-22T12:37:21.962Z,54.46
2016-10-22T12:38:35.410Z,54.27
2016-10-22T12:39:48.710Z,54.82
2016-10-22T12:41:02.184Z,54.92
2016-10-22T12:42:15.085Z,55.67
2016-10-22T12:43:28.631Z,55.57
2016-10-22T12:44:41.712Z,55.83
2016-10-22T12:45:54.685Z,56.13
2016-10-22T12:47:07.739Z,56.32
2016-10-22T12:48:20.655Z,57.45
2016-10-22T12:49:33.327Z,57.75
2016-10-22T12:50:46.258Z,58.59
2016-10-22T12:51:59.284Z,59.17
2016-10-22T12:53:11.730Z,60.04
2016-10-22T12:54:25.194Z,60.59
2016-10-22T12:55:38.828Z,60.69
2016-10-22T12:56:51.904Z,60.5
2016-10-22T12:58:04.872Z,60.14
2016-10-22T12:59:16.739Z,60.14
2016-10-22T13:00:30.228Z,60.24
2016-10-22T13:01:43.763Z,58.91
2016-10-22T13:02:56.727Z,58.91
2016-10-22T13:04:10.286Z,57.58
2016-10-22T13:05:22.732Z,57.68
2016-10-22T13:06:33.752Z,56.9
2016-10-22T13:07:47.571Z,57.58
2016-10-22T13:09:00.023Z,57.58
2016-10-22T13:10:13.567Z,57.48
2016-10-22T13:11:27.019Z,57.65
2016-10-22T13:12:40.436Z,57.17
2016-10-22T13:13:53.374Z,58.04
2016-10-22T13:15:05.436Z,57.84
2016-10-22T13:16:18.905Z,58.14
2016-10-22T13:17:31.417Z,58.14
2016-10-22T13:18:44.925Z,58.23
2016-10-22T13:19:58.478Z,58.52
2016-10-22T13:21:11.548Z,58.04
2016-10-22T13:22:25.035Z,58.14
2016-10-22T13:23:38.066Z,57
2016-10-22T13:24:51.614Z,56.41
2016-10-22T13:26:04.784Z,55.35
2016-10-22T13:27:18.394Z,54.9
2016-10-22T13:28:31.711Z,53.44
2016-10-22T13:29:44.934Z,52.98
2016-10-22T13:30:57.955Z,52.81
2016-10-22T13:32:10.467Z,53.1
2016-10-22T13:33:23.917Z,52.72
2016-10-22T13:34:37.430Z,51.75
2016-10-22T13:35:50.541Z,51.84
2016-10-22T13:37:02.974Z,52.03
2016-10-22T13:38:15.454Z,52.13
2016-10-22T13:39:29.062Z,51.84
2016-10-22T13:40:42.038Z,51.93
2016-10-22T13:41:55.560Z,50.89
2016-10-22T13:43:08.547Z,50.12
2016-10-22T13:44:22.008Z,49.46
2016-10-22T13:45:35.694Z,47.93
2016-10-22T13:46:48.579Z,47.1
2016-10-22T13:48:01.641Z,46.42
2016-10-22T13:49:14.074Z,45.86
2016-10-22T13:50:27.378Z,44.81
2016-10-22T13:51:40.944Z,45.03
2016-10-22T13:52:53.383Z,45.03
2016-10-22T13:54:06.813Z,45.03
2016-10-22T13:55:19.354Z,45.03
2016-10-22T13:56:32.304Z,44.62
2016-10-22T13:57:45.760Z,43.95
2016-10-22T13:58:58.690Z,43.57
2016-10-22T14:00:11.113Z,42.79
2016-10-22T14:01:24.722Z,42.88
2016-10-22T14:02:37.717Z,42.9
2016-10-22T14:03:49.727Z,42.69
2016-10-22T14:05:03.198Z,42.59
2016-10-22T14:06:16.643Z,42.4
2016-10-22T14:07:28.562Z,41.73
2016-10-22T14:08:41.489Z,41.56
2016-10-22T14:09:54.495Z,40.7
2016-10-22T14:11:06.879Z,40.31
2016-10-22T14:12:19.946Z,40.31
2016-10-22T14:13:33.456Z,40.01
2016-10-22T14:14:46.480Z,40.11
2016-10-22T14:15:59.941Z,40.5
2016-10-22T14:17:13.433Z,40.89
2016-10-22T14:18:26.514Z,40.5
2016-10-22T14:19:38.906Z,40.5
2016-10-22T14:20:51.398Z,39.92
2016-10-22T14:22:03.859Z,39.94
2016-10-22T14:23:17.455Z,39.94
2016-10-22T14:24:29.968Z,39.45
2016-10-22T14:25:42.917Z,39.55
2016-10-22T14:26:55.890Z,39.65
2016-10-22T14:28:08.769Z,40.31
2016-10-22T14:29:21.720Z,39.62
2016-10-22T14:30:35.197Z,40.11
2016-10-22T14:31:48.216Z,39.8
2016-10-22T14:33:01.184Z,40.39
2016-10-22T14:34:13.231Z,40.39
2016-10-22T14:35:26.147Z,40.47
2016-10-22T14:36:39.671Z,41.71
2016-10-22T14:37:52.185Z,42.18
2016-10-22T14:39:05.115Z,42.55
2016-10-22T14:40:17.532Z,42.94
2016-10-22T14:41:31.004Z,42.94
2016-10-22T14:42:44.478Z,42.74
2016-10-22T14:43:57.960Z,42.57
2016-10-22T14:45:11.014Z,41.99
2016-10-22T14:46:23.986Z,41.22
2016-10-22T14:47:37.506Z,39.88
2016-10-22T14:48:50.485Z,39.43
2016-10-22T14:50:02.382Z,38.77
2016-10-22T14:51:14.936Z,38.4
2016-10-22T14:52:27.873Z,37.71
2016-10-22T14:53:40.321Z,37.91
2016-10-22T14:54:53.819Z,37.91
2016-10-22T14:56:07.396Z,37.91
2016-10-22T14:57:20.879Z,37.81
2016-10-22T14:58:34.405Z,38.67
2016-10-22T14:59:46.863Z,38.77
2016-10-22T15:00:59.373Z,38.77
2016-10-22T15:02:11.847Z,38.48
2016-10-22T15:03:24.288Z,38.4
2016-10-22T15:04:36.713Z,37.91
2016-10-22T15:05:50.171Z,36.85
2016-10-22T15:07:03.290Z,35.28
2016-10-22T15:08:16.307Z,35.3
2016-10-22T15:09:29.235Z,35.5
2016-10-22T15:10:40.611Z,35.3
2016-10-22T15:11:53.567Z,34.24
2016-10-22T15:13:06.508Z,33.38
2016-10-22T15:14:19.954Z,33
2016-10-22T15:15:32.925Z,33.5
2016-10-22T15:16:45.967Z,32.73
2016-10-22T15:17:57.944Z,32.14
2016-10-22T15:19:10.402Z,32.06
2016-10-22T15:20:22.907Z,31.97
2016-10-22T15:21:35.898Z,31.87
2016-10-22T15:22:49.391Z,31.97
2016-10-22T15:24:02.885Z,31.2
2016-10-22T15:25:15.858Z,31.09
2016-10-22T15:26:28.304Z,32.25
2016-10-22T15:27:41.753Z,32.92
2016-10-22T15:28:55.396Z,33.2
2016-10-22T15:30:08.855Z,33.29
2016-10-22T15:31:22.317Z,33.1
2016-10-22T15:32:34.828Z,32.63
2016-10-22T15:33:47.361Z,32.82
2016-10-22T15:34:59.223Z,32.92
2016-10-22T15:36:12.259Z,33.39
2016-10-22T15:37:25.223Z,33.39
2016-10-22T15:38:38.630Z,34.16
2016-10-22T15:39:51.191Z,34.93
2016-10-22T15:41:02.580Z,35.42
2016-10-22T15:42:16.083Z,35.89
2016-10-22T15:43:29.109Z,36.07